Time;durP1;ratioP1;P1;durP2;ratioP2;P2;SDS_P1;SDS_P2;PMS_P1;PMS_P2;Temp;Humidity;BMP_temperature;BMP_pressure;BME280_temperature;BME280_humidity;BME280_pressure;Samples;Min_cycle;Max_cycle;Signal;HPM_P1;HPM_P2
2021/08/17 00:01:13;;;;;;;5.85;1.70;;;14.70;72.20;;;;;;5032730;28;20036;-80
2021/08/17 00:07:02;;;;;;;6.90;1.70;;;14.60;72.40;;;;;;5034476;28;20028;-81
2021/08/17 00:09:28;;;;;;;7.82;2.00;;;14.60;72.40;;;;;;5032524;28;20029;-81
2021/08/17 00:11:53;;;;;;;4.40;1.50;;;14.50;72.60;;;;;;5032641;28;20067;-81
2021/08/17 00:14:19;;;;;;;7.28;2.05;;;14.40;72.70;;;;;;5032496;28;20021;-81
2021/08/17 00:16:44;;;;;;;8.48;2.13;;;14.50;72.80;;;;;;5032348;28;20033;-81
2021/08/17 00:19:10;;;;;;;9.48;1.85;;;14.40;72.90;;;;;;5032372;28;20127;-81
2021/08/17 00:21:37;;;;;;;5.00;1.77;;;14.40;72.90;;;;;;5032337;28;20091;-81
2021/08/17 00:24:03;;;;;;;4.95;1.48;;;14.40;72.90;;;;;;5032472;28;20022;-81
2021/08/17 00:26:29;;;;;;;5.10;1.48;;;14.40;73.00;;;;;;5033739;28;20021;-81
2021/08/17 00:28:54;;;;;;;5.20;1.50;;;14.40;73.10;;;;;;5032525;28;20049;-82
2021/08/17 00:31:20;;;;;;;7.15;1.90;;;14.30;73.00;;;;;;5032071;28;20120;-82
2021/08/17 00:33:45;;;;;;;6.97;1.55;;;14.30;73.70;;;;;;5032240;28;20061;-82
2021/08/17 00:36:11;;;;;;;7.18;2.13;;;14.30;73.10;;;;;;5032199;28;20025;-80
2021/08/17 00:38:37;;;;;;;8.20;1.70;;;14.30;73.10;;;;;;5033510;28;20021;-81
2021/08/17 00:41:07;;;;;;;6.43;1.77;;;14.30;73.10;;;;;;5032450;28;20049;-80
2021/08/17 00:43:34;;;;;;;10.48;2.08;;;14.30;73.10;;;;;;5032267;28;20127;-80
2021/08/17 00:45:59;;;;;;;8.20;1.83;;;14.30;73.20;;;;;;5031923;28;20032;-80
2021/08/17 00:48:25;;;;;;;8.52;1.88;;;14.30;73.30;;;;;;5033514;28;20473;-80
2021/08/17 00:50:51;;;;;;;5.07;1.67;;;14.20;73.30;;;;;;5032103;28;20084;-80
2021/08/17 00:53:16;;;;;;;6.40;2.20;;;14.20;73.30;;;;;;5032456;28;20029;-80
2021/08/17 00:55:42;;;;;;;5.57;1.95;;;14.30;73.30;;;;;;5032201;28;20032;-79
2021/08/17 00:58:07;;;;;;;5.05;1.90;;;14.30;73.30;;;;;;5031901;28;20051;-80
2021/08/17 01:00:33;;;;;;;8.65;1.80;;;14.20;73.30;;;;;;5033331;28;20017;-79
2021/08/17 01:02:59;;;;;;;4.68;1.60;;;14.20;73.30;;;;;;5031616;28;20117;-80
2021/08/17 01:05:29;;;;;;;4.72;1.60;;;14.20;73.30;;;;;;5031739;28;20021;-81
2021/08/17 01:07:55;;;;;;;5.15;1.80;;;14.20;73.40;;;;;;5031855;28;20052;-81
2021/08/17 01:10:22;;;;;;;5.75;1.90;;;14.10;73.30;;;;;;5031900;28;20032;-81
2021/08/17 01:12:47;;;;;;;8.35;2.00;;;14.20;73.40;;;;;;5031894;28;20061;-81
2021/08/17 01:15:17;;;;;;;3.53;1.50;;;14.10;73.40;;;;;;5031716;28;20507;-81
2021/08/17 01:17:44;;;;;;;7.05;1.92;;;14.10;73.50;;;;;;5032859;28;20052;-81
2021/08/17 01:20:16;;;;;;;6.63;1.92;;;14.00;73.50;;;;;;5031408;28;20546;-81
2021/08/17 01:22:43;;;;;;;5.88;1.73;;;14.10;73.50;;;;;;5031538;28;20087;-82
2021/08/17 01:25:11;;;;;;;5.63;1.63;;;14.00;73.50;;;;;;5032851;28;20029;-81
2021/08/17 01:27:38;;;;;;;6.43;1.85;;;14.00;74.10;;;;;;5031449;28;20104;-81
2021/08/17 01:30:04;;;;;;;5.97;1.90;;;14.00;73.60;;;;;;5031331;28;20473;-81
2021/08/17 01:32:30;;;;;;;4.60;1.50;;;14.00;73.60;;;;;;5031398;28;20469;-81
2021/08/17 01:34:56;;;;;;;4.50;1.63;;;13.90;73.60;;;;;;5031444;28;20231;-81
2021/08/17 01:37:21;;;;;;;3.88;1.60;;;14.00;73.70;;;;;;5031256;28;20132;-81
2021/08/17 01:40:05;;;;;;;5.78;1.73;;;13.90;73.60;;;;;;5031357;28;20037;-82
2021/08/17 01:42:35;;;;;;;4.45;1.70;;;13.90;73.60;;;;;;5031383;28;20021;-81
2021/08/17 01:48:28;;;;;;;6.93;1.90;;;14.00;73.70;;;;;;5032504;28;20033;-81
2021/08/17 01:50:54;;;;;;;6.47;1.77;;;13.90;73.60;;;;;;5032539;28;20078;-81
2021/08/17 01:53:26;;;;;;;6.43;1.50;;;13.90;73.60;;;;;;5033714;28;20021;-80
2021/08/17 01:55:53;;;;;;;4.80;1.67;;;13.90;73.70;;;;;;5035279;28;20516;-80
2021/08/17 01:58:21;;;;;;;4.43;1.83;;;13.90;73.70;;;;;;5036415;28;20025;-80
2021/08/17 02:00:46;;;;;;;5.75;1.60;;;13.90;73.70;;;;;;5036305;28;20032;-81
2021/08/17 02:03:12;;;;;;;8.18;3.35;;;13.90;73.80;;;;;;5035173;28;20014;-81
2021/08/17 02:05:38;;;;;;;7.43;1.90;;;13.80;73.80;;;;;;5034998;28;20469;-81
2021/08/17 02:08:05;;;;;;;6.03;1.80;;;13.80;73.80;;;;;;5035106;28;20025;-81
2021/08/17 02:10:31;;;;;;;7.95;1.85;;;13.90;73.90;;;;;;5034837;28;20029;-81
2021/08/17 02:12:56;;;;;;;4.72;1.90;;;13.80;73.90;;;;;;5035039;28;20021;-81
2021/08/17 02:15:22;;;;;;;7.43;1.85;;;13.80;73.90;;;;;;5034808;28;20095;-81
2021/08/17 02:17:48;;;;;;;3.58;1.60;;;13.80;74.00;;;;;;5034729;28;20506;-80
2021/08/17 02:20:14;;;;;;;6.20;1.70;;;13.80;74.00;;;;;;5035895;28;20266;-82
2021/08/17 02:22:40;;;;;;;3.30;1.73;;;13.80;74.10;;;;;;5034610;28;20104;-81
2021/08/17 02:25:06;;;;;;;3.88;1.60;;;13.80;74.10;;;;;;5036071;28;20026;-81
2021/08/17 02:27:36;;;;;;;4.40;1.90;;;13.80;74.20;;;;;;5036087;28;20025;-81
2021/08/17 02:30:04;;;;;;;6.63;2.13;;;13.70;74.30;;;;;;5034683;28;20017;-81
2021/08/17 02:32:29;;;;;;;5.80;2.17;;;13.70;75.00;;;;;;5034404;28;20028;-81
2021/08/17 02:34:55;;;;;;;5.70;1.90;;;13.70;74.40;;;;;;5034862;28;20025;-81
2021/08/17 02:37:21;;;;;;;5.25;1.65;;;13.70;74.50;;;;;;5034460;28;20504;-81
2021/08/17 02:39:46;;;;;;;7.15;1.80;;;13.70;74.50;;;;;;5034366;28;20072;-81
2021/08/17 02:42:12;;;;;;;6.68;1.83;;;13.70;74.50;;;;;;5035811;28;20022;-82
2021/08/17 02:44:38;;;;;;;5.40;1.98;;;13.70;74.60;;;;;;5034538;28;20029;-82
2021/08/17 02:47:03;;;;;;;4.28;1.80;;;13.70;74.60;;;;;;5035471;28;20375;-81
2021/08/17 02:49:32;;;;;;;4.88;1.80;;;13.70;74.70;;;;;;5034328;28;20026;-82
2021/08/17 02:52:00;;;;;;;5.45;1.75;;;13.70;74.80;;;;;;5034422;28;20032;-82
2021/08/17 02:54:26;;;;;;;8.35;1.95;;;13.60;74.70;;;;;;5034376;28;20121;-81
2021/08/17 02:56:51;;;;;;;4.90;1.75;;;13.70;74.80;;;;;;5034165;28;20406;-81
2021/08/17 02:59:17;;;;;;;3.80;1.50;;;13.70;74.80;;;;;;5034002;28;20045;-81
2021/08/17 03:01:43;;;;;;;4.82;1.63;;;13.70;74.90;;;;;;5033853;28;20029;-82
2021/08/17 03:04:09;;;;;;;5.07;1.90;;;13.70;74.90;;;;;;5033197;28;20032;-81
2021/08/17 03:06:34;;;;;;;4.72;2.03;;;13.60;74.90;;;;;;5033882;28;20113;-81
2021/08/17 03:09:00;;;;;;;5.53;1.92;;;13.70;75.00;;;;;;5035053;28;20384;-80
2021/08/17 03:11:26;;;;;;;3.90;1.77;;;13.60;75.00;;;;;;5033866;28;20017;-81
2021/08/17 03:13:52;;;;;;;5.80;2.28;;;13.70;75.20;;;;;;5033720;28;20160;-80
2021/08/17 03:16:18;;;;;;;5.53;2.00;;;13.70;75.20;;;;;;5033600;28;20028;-81
2021/08/17 03:18:43;;;;;;;4.90;1.80;;;13.60;75.30;;;;;;5033829;28;20021;-81
2021/08/17 03:21:09;;;;;;;5.05;1.73;;;13.60;75.40;;;;;;5034637;28;20049;-80
2021/08/17 03:23:34;;;;;;;5.13;2.03;;;13.60;75.60;;;;;;5033472;28;20056;-80
2021/08/17 03:26:00;;;;;;;6.18;1.95;;;13.60;75.70;;;;;;5034652;28;20028;-79
2021/08/17 03:28:26;;;;;;;5.63;1.98;;;13.60;75.80;;;;;;5033182;28;20044;-79
2021/08/17 03:34:14;;;;;;;2.80;1.52;;;13.60;76.10;;;;;;5034926;28;20036;-81
2021/08/17 03:36:39;;;;;;;5.50;1.92;;;13.60;76.00;;;;;;5033228;28;20017;-80
2021/08/17 03:39:05;;;;;;;5.32;2.10;;;13.60;76.10;;;;;;5033189;28;20385;-81
2021/08/17 03:41:30;;;;;;;5.00;1.98;;;13.60;76.20;;;;;;5033002;28;20021;-80
2021/08/17 03:43:56;;;;;;;5.90;1.90;;;13.60;76.30;;;;;;5032846;28;20551;-80
2021/08/17 03:46:22;;;;;;;4.45;1.80;;;13.60;76.40;;;;;;5032935;28;20497;-81
2021/08/17 03:48:48;;;;;;;2.67;1.85;;;13.60;76.40;;;;;;5034319;28;20026;-80
2021/08/17 03:51:13;;;;;;;6.03;1.73;;;13.60;76.50;;;;;;5032782;28;20088;-80
2021/08/17 03:53:39;;;;;;;4.57;1.98;;;13.60;76.50;;;;;;5032817;28;20033;-80
2021/08/17 03:56:04;;;;;;;3.50;1.83;;;13.60;76.50;;;;;;5032978;28;20041;-80
2021/08/17 03:58:30;;;;;;;3.88;1.90;;;13.70;76.50;;;;;;5032739;28;20167;-80
2021/08/17 04:00:56;;;;;;;4.85;2.10;;;13.70;76.50;;;;;;5032788;28;20504;-80
2021/08/17 04:03:21;;;;;;;5.05;1.80;;;13.70;76.50;;;;;;5034067;28;20029;-81
2021/08/17 04:05:50;;;;;;;8.10;2.20;;;13.70;76.60;;;;;;5034127;28;20032;-80
2021/08/17 04:08:16;;;;;;;5.97;2.10;;;13.70;76.60;;;;;;5032796;28;20013;-80
2021/08/17 04:10:41;;;;;;;4.03;2.00;;;13.80;76.70;;;;;;5032779;28;20021;-80
2021/08/17 04:13:07;;;;;;;5.68;2.00;;;13.80;76.80;;;;;;5032655;28;20022;-80
2021/08/17 04:15:33;;;;;;;5.32;2.00;;;13.80;77.00;;;;;;5032559;28;20034;-80
2021/08/17 04:17:58;;;;;;;4.35;2.20;;;13.80;77.20;;;;;;5032734;28;20044;-80
2021/08/17 04:20:25;;;;;;;6.85;2.60;;;13.80;77.30;;;;;;5032136;28;20444;-80
2021/08/17 04:22:50;;;;;;;8.27;2.70;;;13.80;77.30;;;;;;5032391;28;20030;-80
2021/08/17 04:25:16;;;;;;;7.07;2.03;;;13.80;77.50;;;;;;5032044;28;20112;-81
2021/08/17 04:27:42;;;;;;;5.03;2.00;;;13.90;77.60;;;;;;5032262;28;20428;-80
2021/08/17 04:30:08;;;;;;;6.88;2.20;;;13.90;77.70;;;;;;5032192;28;20076;-81
2021/08/17 04:32:34;;;;;;;3.78;2.10;;;13.90;77.70;;;;;;5032123;28;20057;-81
2021/08/17 04:35:00;;;;;;;4.50;2.20;;;14.00;77.80;;;;;;5032718;28;20029;-81
2021/08/17 04:37:25;;;;;;;4.90;2.35;;;14.00;77.80;;;;;;5032078;28;20025;-81
2021/08/17 04:39:51;;;;;;;5.25;2.55;;;14.00;77.90;;;;;;5033372;28;20017;-81
2021/08/17 04:42:17;;;;;;;7.25;2.40;;;14.10;78.20;;;;;;5032063;28;20466;-81
2021/08/17 04:44:42;;;;;;;4.78;2.30;;;14.10;78.30;;;;;;5031971;28;20022;-80
2021/08/17 04:47:08;;;;;;;6.97;2.42;;;14.10;78.30;;;;;;5033313;28;20028;-80
2021/08/17 04:49:33;;;;;;;4.43;2.33;;;14.10;78.40;;;;;;5032010;28;20017;-80
2021/08/17 04:51:59;;;;;;;5.63;2.40;;;14.10;78.50;;;;;;5031785;28;20056;-80
2021/08/17 04:54:25;;;;;;;3.67;2.45;;;14.10;79.30;;;;;;5032001;28;20021;-82
2021/08/17 04:56:51;;;;;;;3.53;2.50;;;14.10;78.60;;;;;;5033465;28;20026;-81
2021/08/17 04:59:16;;;;;;;4.03;2.30;;;14.20;78.70;;;;;;5031934;28;20017;-81
2021/08/17 05:01:42;;;;;;;5.72;2.80;;;14.20;78.60;;;;;;5033356;28;20113;-80
2021/08/17 05:04:10;;;;;;;6.70;2.53;;;14.20;78.70;;;;;;5031905;28;20568;-81
2021/08/17 05:06:36;;;;;;;6.90;2.70;;;14.30;78.70;;;;;;5032042;28;20389;-80
2021/08/17 05:09:04;;;;;;;6.20;2.70;;;14.30;78.60;;;;;;5033743;28;20511;-81
2021/08/17 05:11:30;;;;;;;6.57;2.63;;;14.30;78.80;;;;;;5032765;28;20448;-81
2021/08/17 05:13:55;;;;;;;5.53;3.00;;;14.30;78.80;;;;;;5032546;28;20055;-81
2021/08/17 05:16:21;;;;;;;7.10;3.08;;;14.30;78.80;;;;;;5032694;28;20067;-81
2021/08/17 05:18:46;;;;;;;5.85;3.47;;;14.30;79.00;;;;;;5034086;28;20025;-82
2021/08/17 05:21:12;;;;;;;7.38;3.88;;;14.30;79.10;;;;;;5032727;28;20033;-82
2021/08/17 05:23:38;;;;;;;5.55;3.28;;;14.30;79.30;;;;;;5034785;28;20024;-81
2021/08/17 05:26:04;;;;;;;4.85;3.28;;;14.30;79.30;;;;;;5035540;28;20149;-81
2021/08/17 05:28:29;;;;;;;7.75;3.28;;;14.40;79.50;;;;;;5032553;28;20022;-80
2021/08/17 05:30:55;;;;;;;7.75;4.10;;;14.30;79.50;;;;;;5033074;28;20397;-81
2021/08/17 05:33:20;;;;;;;5.78;3.10;;;14.40;79.80;;;;;;5034346;28;20025;-80
2021/08/17 05:35:46;;;;;;;7.72;3.47;;;14.40;79.70;;;;;;5033532;28;20029;-81
2021/08/17 05:38:12;;;;;;;7.20;3.75;;;14.40;79.70;;;;;;5033565;28;20049;-81
2021/08/17 05:40:38;;;;;;;6.68;4.00;;;14.50;79.80;;;;;;5032593;28;20029;-81
2021/08/17 05:46:25;;;;;;;9.68;5.20;;;14.50;80.00;;;;;;5032957;28;20028;-81
2021/08/17 05:48:51;;;;;;;9.75;6.13;;;14.60;79.90;;;;;;5032559;28;20465;-81
2021/08/17 05:51:17;;;;;;;12.20;6.90;;;14.50;80.00;;;;;;5031534;28;20026;-81
2021/08/17 05:53:42;;;;;;;12.02;6.57;;;14.50;80.50;;;;;;5032593;28;20022;-81
2021/08/17 05:56:08;;;;;;;12.98;6.32;;;14.60;80.40;;;;;;5031206;28;20048;-80
2021/08/17 05:58:34;;;;;;;12.40;6.90;;;14.60;80.40;;;;;;5031082;28;20045;-80
2021/08/17 06:01:00;;;;;;;14.25;6.80;;;14.70;80.40;;;;;;5031102;28;20026;-81
2021/08/17 06:03:26;;;;;;;14.57;7.85;;;14.80;80.50;;;;;;5032373;28;20041;-80
2021/08/17 06:05:52;;;;;;;17.10;8.48;;;14.80;80.60;;;;;;5031076;28;20075;-81
2021/08/17 06:08:17;;;;;;;16.00;7.90;;;14.80;80.70;;;;;;5031070;28;20017;-82
2021/08/17 06:10:43;;;;;;;17.38;9.38;;;14.90;80.70;;;;;;5030820;28;20029;-81
2021/08/17 06:13:08;;;;;;;19.33;9.15;;;14.90;80.90;;;;;;5031073;28;20398;-80
2021/08/17 06:15:34;;;;;;;16.60;8.45;;;15.00;81.00;;;;;;5030659;28;20095;-80
2021/08/17 06:18:04;;;;;;;15.32;8.63;;;15.00;81.10;;;;;;5032288;28;20068;-81
2021/08/17 06:20:30;;;;;;;16.30;9.38;;;15.10;81.10;;;;;;5030552;28;20046;-81
2021/08/17 06:22:55;;;;;;;16.85;8.80;;;15.20;81.20;;;;;;5032174;28;20025;-81
2021/08/17 06:25:21;;;;;;;21.95;9.55;;;15.20;81.10;;;;;;5031013;28;20068;-80
2021/08/17 06:27:47;;;;;;;16.92;8.73;;;15.30;81.00;;;;;;5030755;28;20025;-80
2021/08/17 06:30:13;;;;;;;20.65;10.07;;;15.40;80.80;;;;;;5031013;28;20442;-81
2021/08/17 06:32:38;;;;;;;17.90;9.48;;;15.50;80.80;;;;;;5030835;28;20026;-80
2021/08/17 06:35:04;;;;;;;18.25;9.73;;;15.60;80.80;;;;;;5032216;28;20508;-80
2021/08/17 06:37:30;;;;;;;20.23;9.43;;;15.60;80.70;;;;;;5032535;28;20026;-81
2021/08/17 06:39:56;;;;;;;16.85;9.40;;;15.70;80.70;;;;;;5033792;28;20024;-81
2021/08/17 06:42:21;;;;;;;18.50;9.88;;;15.80;80.70;;;;;;5034534;28;20013;-81
2021/08/17 06:44:47;;;;;;;18.77;9.70;;;15.80;80.80;;;;;;5034472;28;20481;-82
2021/08/17 06:47:13;;;;;;;18.30;11.02;;;15.80;80.90;;;;;;5035627;28;20021;-80
2021/08/17 06:49:38;;;;;;;20.77;11.63;;;15.90;81.00;;;;;;5035547;28;20021;-80
2021/08/17 06:52:04;;;;;;;22.45;12.45;;;15.90;81.00;;;;;;5034223;28;20029;-81
2021/08/17 06:54:30;;;;;;;18.23;10.52;;;16.00;81.00;;;;;;5035772;28;20449;-81
2021/08/17 06:56:55;;;;;;;19.33;10.60;;;16.00;81.00;;;;;;5035632;28;20018;-81
2021/08/17 06:59:21;;;;;;;19.52;9.80;;;16.10;80.90;;;;;;5034241;28;20477;-80
2021/08/17 07:01:47;;;;;;;16.75;9.40;;;16.10;80.80;;;;;;5033871;28;20026;-80
2021/08/17 07:04:12;;;;;;;17.85;9.55;;;16.20;80.70;;;;;;5035212;28;20428;-74
2021/08/17 07:06:38;;;;;;;19.05;9.90;;;16.30;80.70;;;;;;5033750;28;20014;-75
2021/08/17 07:09:04;;;;;;;20.35;10.10;;;16.30;80.50;;;;;;5033762;28;20020;-78
2021/08/17 07:11:30;;;;;;;19.85;9.98;;;16.30;80.70;;;;;;5034893;28;20025;-76
2021/08/17 07:13:56;;;;;;;19.77;10.65;;;16.30;80.70;;;;;;5035091;28;20021;-79
2021/08/17 07:16:22;;;;;;;16.92;9.82;;;16.30;80.70;;;;;;5033470;28;20035;-79
2021/08/17 07:18:48;;;;;;;23.45;11.70;;;16.30;80.70;;;;;;5034781;28;20033;-79
2021/08/17 07:21:13;;;;;;;25.42;11.60;;;16.30;80.70;;;;;;5033354;28;20029;-79
2021/08/17 07:23:39;;;;;;;19.98;11.07;;;16.30;80.90;;;;;;5033314;28;20079;-79
2021/08/17 07:26:05;;;;;;;18.67;10.18;;;16.30;80.90;;;;;;5033425;28;20025;-79
2021/08/17 07:28:31;;;;;;;20.52;10.82;;;16.30;81.00;;;;;;5033456;28;20052;-79
2021/08/17 07:30:57;;;;;;;20.38;11.38;;;16.40;81.00;;;;;;5034817;28;20034;-80
2021/08/17 07:33:22;;;;;;;21.98;10.70;;;16.40;81.00;;;;;;5034701;28;20469;-79
2021/08/17 07:35:48;;;;;;;19.65;10.55;;;16.40;80.80;;;;;;5033456;28;20033;-80
2021/08/17 07:38:14;;;;;;;19.27;10.75;;;16.50;80.80;;;;;;5033556;28;20028;-79
2021/08/17 07:40:40;;;;;;;23.73;11.15;;;16.50;80.70;;;;;;5033276;28;20033;-80
2021/08/17 07:43:06;;;;;;;18.67;10.13;;;16.60;80.80;;;;;;5033126;28;20026;-79
2021/08/17 07:45:32;;;;;;;19.85;10.90;;;16.60;80.70;;;;;;5032948;28;20025;-79
2021/08/17 07:47:57;;;;;;;18.90;10.15;;;16.70;80.80;;;;;;5033213;28;20444;-79
2021/08/17 07:50:23;;;;;;;17.40;9.15;;;16.80;80.70;;;;;;5033117;28;20025;-79
2021/08/17 07:52:50;;;;;;;19.08;9.77;;;16.80;80.60;;;;;;5034725;28;20341;-79
2021/08/17 07:55:17;;;;;;;15.77;9.27;;;16.90;80.50;;;;;;5034716;28;20032;-79
2021/08/17 07:57:43;;;;;;;21.33;10.63;;;16.90;80.40;;;;;;5034533;28;20025;-79
2021/08/17 08:00:11;;;;;;;16.92;9.00;;;17.00;80.40;;;;;;5034411;28;20108;-79
2021/08/17 08:02:37;;;;;;;17.25;9.05;;;17.00;80.40;;;;;;5032826;28;20481;-79
2021/08/17 08:05:04;;;;;;;14.52;8.25;;;17.00;80.40;;;;;;5033209;28;20018;-79
2021/08/17 08:07:29;;;;;;;20.65;9.07;;;17.20;80.20;;;;;;5032575;28;20030;-79
2021/08/17 08:09:55;;;;;;;14.23;8.05;;;17.30;80.10;;;;;;5033052;28;20067;-79
2021/08/17 08:12:21;;;;;;;14.07;8.10;;;17.40;79.90;;;;;;5033438;28;20026;-80
2021/08/17 08:14:47;;;;;;;16.02;8.20;;;17.40;79.90;;;;;;5032911;28;20358;-79
2021/08/17 08:17:12;;;;;;;16.92;9.48;;;17.30;79.80;;;;;;5033734;28;20025;-79
2021/08/17 08:19:39;;;;;;;13.00;7.90;;;17.30;80.00;;;;;;5032240;28;20045;-79
2021/08/17 08:22:05;;;;;;;16.48;7.70;;;17.30;80.10;;;;;;5032686;28;20436;-79
2021/08/17 08:24:32;;;;;;;15.30;8.82;;;17.20;80.20;;;;;;5032575;28;20508;-80
2021/08/17 08:26:58;;;;;;;13.50;7.47;;;17.20;80.20;;;;;;5033882;28;20442;-79
2021/08/17 08:29:24;;;;;;;14.95;8.02;;;17.30;80.20;;;;;;5032248;28;20079;-78
2021/08/17 08:31:50;;;;;;;15.68;8.43;;;17.30;80.20;;;;;;5032391;28;20116;-79
2021/08/17 08:34:15;;;;;;;15.25;8.23;;;17.30;80.10;;;;;;5033713;28;20105;-80
2021/08/17 08:36:41;;;;;;;16.67;7.97;;;17.40;80.00;;;;;;5033647;28;20107;-79
2021/08/17 08:39:07;;;;;;;12.93;7.60;;;17.30;79.90;;;;;;5032388;28;20033;-79
2021/08/17 08:41:33;;;;;;;14.57;7.15;;;17.30;79.90;;;;;;5032245;28;20033;-79
2021/08/17 08:43:59;;;;;;;13.85;6.80;;;17.30;79.90;;;;;;5031899;28;20025;-80
2021/08/17 08:46:28;;;;;;;16.90;7.45;;;17.40;79.90;;;;;;5032192;28;20598;-79
2021/08/17 08:48:54;;;;;;;16.17;8.40;;;17.40;80.40;;;;;;5033369;28;20025;-80
2021/08/17 08:51:20;;;;;;;14.30;7.03;;;17.40;79.80;;;;;;5033194;28;20067;-79
2021/08/17 08:53:49;;;;;;;12.73;6.93;;;17.40;79.80;;;;;;5031782;28;20013;-79
2021/08/17 08:56:15;;;;;;;11.40;7.30;;;17.30;79.80;;;;;;5032031;28;20026;-79
2021/08/17 08:58:42;;;;;;;13.63;7.50;;;17.30;80.40;;;;;;5033112;28;20021;-79
2021/08/17 09:01:09;;;;;;;13.82;7.40;;;17.30;79.70;;;;;;5031807;28;20116;-79
2021/08/17 09:03:43;;;;;;;11.95;6.93;;;17.20;79.80;;;;;;5032420;28;20484;-79
2021/08/17 09:06:15;;;;;;;14.63;7.53;;;17.20;79.90;;;;;;5033114;28;20100;-80
2021/08/17 09:08:41;;;;;;;13.93;6.90;;;17.10;79.90;;;;;;5031621;28;20032;-80
2021/08/17 09:11:33;;;;;;;14.57;7.30;;;17.10;79.90;;;;;;5031983;28;20021;-79
2021/08/17 09:14:30;;;;;;;12.52;7.10;;;17.10;79.90;;;;;;5029691;28;20124;-79
2021/08/17 09:17:10;;;;;;;12.45;6.38;;;17.10;80.00;;;;;;5033265;28;20034;-80
2021/08/17 09:19:38;;;;;;;14.02;6.70;;;17.00;79.80;;;;;;5032925;28;20069;-79
2021/08/17 09:22:16;;;;;;;13.88;7.05;;;17.10;79.80;;;;;;5032843;28;20460;-79
2021/08/17 09:24:47;;;;;;;10.27;6.05;;;17.10;79.90;;;;;;5031804;28;20146;-79
2021/08/17 09:27:19;;;;;;;11.68;5.55;;;17.10;79.80;;;;;;5031362;28;20068;-79
2021/08/17 09:29:47;;;;;;;9.93;5.65;;;17.20;79.70;;;;;;5033040;28;20098;-79
2021/08/17 09:32:25;;;;;;;9.93;6.38;;;17.30;79.60;;;;;;5032719;28;20048;-79
2021/08/17 09:34:56;;;;;;;12.68;6.13;;;17.30;79.40;;;;;;5031395;28;20033;-79
2021/08/17 09:37:30;;;;;;;10.25;6.07;;;17.40;79.20;;;;;;5031426;28;20024;-79
2021/08/17 09:39:57;;;;;;;11.68;6.82;;;17.40;79.10;;;;;;5031252;28;20048;-79
2021/08/17 09:42:24;;;;;;;11.10;6.70;;;17.50;78.90;;;;;;5031569;28;20025;-79
2021/08/17 09:45:18;;;;;;;13.38;6.30;;;17.50;78.60;;;;;;5031157;28;20056;-79
2021/08/17 09:47:56;;;;;;;11.98;6.05;;;17.60;78.50;;;;;;5032433;28;20532;-77
2021/08/17 09:50:30;;;;;;;13.10;6.47;;;17.70;78.20;;;;;;5031227;28;20044;-78
2021/08/17 09:53:17;;;;;;;10.68;6.35;;;17.70;77.90;;;;;;5031402;28;20481;-78
2021/08/17 09:55:44;;;;;;;12.55;6.88;;;17.80;77.60;;;;;;5031010;28;20469;-78
2021/08/17 09:58:18;;;;;;;9.90;6.20;;;17.90;77.30;;;;;;5032590;28;20079;-78
2021/08/17 10:00:45;;;;;;;11.48;6.35;;;17.90;77.30;;;;;;5031018;28;20061;-78
2021/08/17 10:03:13;;;;;;;11.13;6.50;;;17.90;76.90;;;;;;5031046;28;20037;-78
2021/08/17 10:05:41;;;;;;;10.68;5.88;;;18.00;76.70;;;;;;5032313;28;20033;-79
2021/08/17 10:08:11;;;;;;;7.82;5.53;;;18.00;76.70;;;;;;5031426;28;20032;-80
2021/08/17 10:10:38;;;;;;;10.23;6.10;;;18.00;76.60;;;;;;5031405;28;20084;-79
2021/08/17 10:13:04;;;;;;;12.50;6.53;;;18.00;76.40;;;;;;5031386;28;20378;-78
2021/08/17 10:15:29;;;;;;;11.35;5.60;;;17.90;76.30;;;;;;5034930;28;20036;-80
2021/08/17 10:18:01;;;;;;;9.60;5.50;;;17.90;76.30;;;;;;5036256;28;20091;-79
2021/08/17 10:20:28;;;;;;;10.13;5.32;;;17.90;76.30;;;;;;5034592;28;20088;-79
2021/08/17 10:22:54;;;;;;;9.25;5.00;;;17.90;76.30;;;;;;5034639;28;20026;-79
2021/08/17 10:25:22;;;;;;;7.97;4.97;;;18.00;76.20;;;;;;5034815;28;20025;-79
2021/08/17 10:27:48;;;;;;;8.77;4.90;;;18.00;76.00;;;;;;5034699;28;20540;-79
2021/08/17 10:30:21;;;;;;;8.73;4.90;;;18.10;75.90;;;;;;5035078;28;20136;-79
2021/08/17 10:32:54;;;;;;;8.50;5.28;;;18.10;75.70;;;;;;5034815;28;20025;-78
2021/08/17 10:35:34;;;;;;;8.85;5.38;;;18.00;75.50;;;;;;5034536;28;20128;-79
2021/08/17 10:38:09;;;;;;;7.70;4.82;;;18.00;75.70;;;;;;5034367;28;20044;-78
2021/08/17 10:43:19;;;;;;;8.23;4.78;;;18.00;75.60;;;;;;5036068;28;20042;-79
2021/08/17 10:45:55;;;;;;;9.18;4.40;;;18.00;76.10;;;;;;5034206;28;20139;-79
2021/08/17 10:48:46;;;;;;;5.95;4.07;;;18.00;75.30;;;;;;5034276;28;20029;-79
2021/08/17 10:51:37;;;;;;;6.50;4.25;;;18.00;75.30;;;;;;5034292;28;20034;-79
2021/08/17 10:54:03;;;;;;;6.65;4.20;;;18.10;76.00;;;;;;5034369;28;20092;-79
2021/08/17 10:59:51;;;;;;;6.88;3.92;;;18.20;74.80;;;;;;5035332;28;20056;-79
2021/08/17 11:02:23;;;;;;;8.27;4.18;;;18.20;74.50;;;;;;5034000;28;20025;-79
2021/08/17 11:04:50;;;;;;;7.35;4.15;;;18.20;74.20;;;;;;5034110;28;20037;-79
2021/08/17 11:07:31;;;;;;;7.80;3.97;;;18.30;74.30;;;;;;5034351;28;20115;-79
2021/08/17 11:09:58;;;;;;;6.85;4.18;;;18.30;74.20;;;;;;5033973;28;20122;-80
2021/08/17 11:12:36;;;;;;;8.48;4.13;;;18.30;74.00;;;;;;5034285;28;20113;-79
2021/08/17 11:15:04;;;;;;;5.45;3.60;;;18.30;73.70;;;;;;5033860;28;20072;-79
2021/08/17 11:17:30;;;;;;;7.45;3.65;;;18.30;73.80;;;;;;5033675;28;20033;-80
2021/08/17 11:19:56;;;;;;;7.00;3.58;;;18.30;73.80;;;;;;5034649;28;20041;-80
2021/08/17 11:22:25;;;;;;;5.00;3.13;;;18.20;73.50;;;;;;5035092;28;20021;-80
2021/08/17 11:24:57;;;;;;;5.05;3.30;;;18.10;73.50;;;;;;5033041;28;20049;-80
2021/08/17 11:27:27;;;;;;;5.78;3.13;;;18.10;73.50;;;;;;5033479;28;20033;-80
2021/08/17 11:29:53;;;;;;;6.68;3.17;;;18.00;73.70;;;;;;5034049;28;20048;-80
2021/08/17 11:32:34;;;;;;;5.15;3.60;;;17.90;74.00;;;;;;5033487;28;20025;-80
2021/08/17 11:35:03;;;;;;;4.55;3.00;;;17.80;74.10;;;;;;5033493;28;20037;-80
2021/08/17 11:37:30;;;;;;;5.80;3.30;;;17.70;74.40;;;;;;5033345;28;20556;-79
2021/08/17 11:39:59;;;;;;;5.15;3.15;;;17.60;74.60;;;;;;5033415;28;20112;-80
2021/08/17 11:42:31;;;;;;;4.90;2.90;;;17.50;75.00;;;;;;5033740;28;20060;-80
2021/08/17 11:45:05;;;;;;;5.90;2.97;;;17.40;75.20;;;;;;5034673;28;20029;-80
2021/08/17 11:47:31;;;;;;;6.60;3.00;;;17.40;75.50;;;;;;5033575;28;20025;-80
2021/08/17 11:50:04;;;;;;;4.72;3.00;;;17.30;75.80;;;;;;5033186;28;20040;-80
2021/08/17 11:52:40;;;;;;;5.85;3.05;;;17.20;76.20;;;;;;5033095;28;20025;-80
2021/08/17 11:55:07;;;;;;;5.53;3.15;;;17.10;76.30;;;;;;5033376;28;20485;-80
2021/08/17 11:57:36;;;;;;;5.00;2.80;;;17.00;76.60;;;;;;5033608;28;20083;-80
2021/08/17 12:00:09;;;;;;;4.53;2.55;;;16.90;76.90;;;;;;5033688;28;20061;-80
2021/08/17 12:02:38;;;;;;;3.92;2.67;;;16.80;77.10;;;;;;5033681;28;20497;-80
2021/08/17 12:05:07;;;;;;;3.95;2.40;;;16.70;77.50;;;;;;5033088;28;20028;-79
2021/08/17 12:07:34;;;;;;;4.70;2.42;;;16.70;77.80;;;;;;5034373;28;20036;-79
2021/08/17 12:10:08;;;;;;;6.32;3.10;;;16.70;78.10;;;;;;5033082;28;20025;-79
2021/08/17 12:12:54;;;;;;;4.47;2.63;;;16.60;78.20;;;;;;5032646;28;20026;-79
2021/08/17 12:15:27;;;;;;;6.57;2.55;;;16.60;78.50;;;;;;5033959;28;20032;-79
2021/08/17 12:18:12;;;;;;;4.37;2.60;;;16.50;78.80;;;;;;5032689;28;20017;-78
2021/08/17 12:20:50;;;;;;;3.40;2.40;;;16.40;79.10;;;;;;5032348;28;20119;-78
2021/08/17 12:23:21;;;;;;;3.70;2.70;;;16.30;79.40;;;;;;5033913;28;20045;-79
2021/08/17 12:25:49;;;;;;;5.97;3.03;;;16.10;80.00;;;;;;5032383;28;20060;-78
2021/08/17 12:28:28;;;;;;;3.90;2.70;;;16.00;80.70;;;;;;5033840;28;20040;-78
2021/08/17 12:31:10;;;;;;;3.78;2.80;;;15.90;81.20;;;;;;5032455;28;20445;-77
2021/08/17 12:36:58;;;;;;;4.60;3.05;;;15.80;81.90;;;;;;5032712;28;20113;-76
2021/08/17 12:39:29;;;;;;;5.70;3.50;;;15.70;82.30;;;;;;5032177;28;20409;-76
2021/08/17 12:42:03;;;;;;;4.32;2.80;;;15.60;82.80;;;;;;5032455;28;20484;-76
2021/08/17 12:44:38;;;;;;;5.13;3.35;;;15.60;83.20;;;;;;5031945;28;20022;-76
2021/08/17 12:47:25;;;;;;;6.95;3.60;;;15.50;83.50;;;;;;5029621;28;20033;-76
2021/08/17 12:50:09;;;;;;;6.22;3.28;;;15.50;84.10;;;;;;5033390;28;20021;-76
2021/08/17 12:52:42;;;;;;;5.25;3.40;;;15.50;84.10;;;;;;5033591;28;20025;-76
2021/08/17 12:55:08;;;;;;;;;;;15.40;84.20;;;;;;5032352;28;20163;-76
2021/08/17 12:57:36;;;;;;;4.85;3.53;;;15.40;84.10;;;;;;5033188;28;20035;-76
2021/08/17 13:00:05;;;;;;;4.47;3.40;;;15.50;84.10;;;;;;5031930;28;20039;-76
2021/08/17 13:02:30;;;;;;;5.35;3.83;;;15.50;84.40;;;;;;5031756;28;20030;-76
2021/08/17 13:04:56;;;;;;;6.30;3.75;;;15.50;84.60;;;;;;5032979;28;20370;-77
2021/08/17 13:07:25;;;;;;;4.72;3.70;;;15.50;84.80;;;;;;5031705;28;20037;-77
2021/08/17 13:09:50;;;;;;;4.50;3.25;;;15.60;85.00;;;;;;5031716;28;20064;-76